Time;durP1;ratioP1;P1;durP2;ratioP2;P2;SDS_P1;SDS_P2;PMS_P1;PMS_P2;Temp;Humidity;BMP_temperature;BMP_pressure;BME280_temperature;BME280_humidity;BME280_pressure;Samples;Min_cycle;Max_cycle;Signal;HPM_P1;HPM_P2
2023/01/21 00:01:06;;;;;;;;;;;2.30;76.60;;;;;;5096226;28;19950;-88
2023/01/21 00:03:31;;;;;;;;;;;2.20;76.80;;;;;;5090470;28;20010;-87
2023/01/21 00:05:57;;;;;;;;;;;2.10;77.10;;;;;;5075940;28;19940;-87
2023/01/21 00:08:23;;;;;;;;;;;2.00;77.50;;;;;;5091515;28;19989;-87
2023/01/21 00:10:48;;;;;;;;;;;2.00;77.80;;;;;;5082669;28;19955;-87
2023/01/21 00:13:14;;;;;;;;;;;2.00;78.10;;;;;;5095930;28;20521;-87
2023/01/21 00:15:39;;;;;;;;;;;2.00;77.90;;;;;;5096046;28;20375;-87
2023/01/21 00:18:05;;;;;;;;;;;2.00;78.20;;;;;;5095991;28;20313;-87
2023/01/21 00:20:30;;;;;;;;;;;2.00;78.30;;;;;;5073233;28;19945;-87
2023/01/21 00:22:56;;;;;;;;;;;2.00;78.50;;;;;;5075609;28;19961;-87
2023/01/21 00:25:22;;;;;;;;;;;1.90;78.90;;;;;;5075581;28;20458;-88
2023/01/21 00:27:47;;;;;;;;;;;1.90;78.80;;;;;;5075584;28;19935;-88
2023/01/21 00:30:13;;;;;;;;;;;1.90;78.90;;;;;;5076792;28;19991;-87
2023/01/21 00:32:38;;;;;;;;;;;2.00;78.70;;;;;;5095728;28;19936;-88
2023/01/21 00:35:04;;;;;;;;;;;2.00;78.20;;;;;;5095694;28;19991;-88
2023/01/21 00:37:30;;;;;;;;;;;2.00;78.10;;;;;;5095654;28;19936;-87
2023/01/21 00:39:55;;;;;;;;;;;2.20;77.70;;;;;;5094870;28;20302;-87
2023/01/21 00:42:21;;;;;;;;;;;2.30;77.40;;;;;;5075436;28;19986;-87
2023/01/21 00:44:46;;;;;;;;;;;2.10;77.40;;;;;;5075270;28;20307;-87
2023/01/21 00:47:12;;;;;;;;;;;1.70;78.30;;;;;;5075202;28;19939;-87
2023/01/21 00:49:37;;;;;;;;;;;1.60;79.00;;;;;;5075119;28;19937;-87
2023/01/21 00:52:03;;;;;;;;;;;1.40;79.40;;;;;;5091238;28;20520;-87
2023/01/21 00:54:31;;;;;;;;;;;1.40;79.60;;;;;;5094900;28;20452;-87
2023/01/21 00:56:59;;;;;;;;;;;1.40;79.90;;;;;;5095162;28;19947;-87
2023/01/21 00:59:27;;;;;;;;;;;1.30;80.20;;;;;;5095200;28;20455;-87
2023/01/21 01:01:52;;;;;;;;;;;1.30;80.20;;;;;;5079923;28;20002;-87
2023/01/21 01:04:18;;;;;;;;;;;1.30;80.10;;;;;;5074842;28;19942;-87
2023/01/21 01:06:44;;;;;;;;;;;1.40;80.20;;;;;;5075072;28;20032;-87
2023/01/21 01:09:11;;;;;;;;;;;1.40;80.20;;;;;;5074786;28;19987;-88
2023/01/21 01:11:37;;;;;;;;;;;1.40;80.20;;;;;;5087029;28;19947;-87
2023/01/21 01:14:03;;;;;;;;;;;1.40;80.30;;;;;;5101772;22;19979;-88
2023/01/21 01:16:29;;;;;;;;;;;1.40;80.10;;;;;;5094882;28;19937;-87
2023/01/21 01:18:54;;;;;;;;;;;1.20;80.80;;;;;;5094475;28;20407;-88
2023/01/21 01:21:20;;;;;;;;;;;1.10;81.20;;;;;;5094765;28;19954;-88
2023/01/21 01:23:47;;;;;;;;;;;1.10;81.40;;;;;;5094610;28;20324;-88
2023/01/21 01:26:14;;;;;;;;;;;1.20;81.40;;;;;;5094393;28;20405;-87
2023/01/21 01:28:39;;;;;;;;;;;1.20;81.40;;;;;;5094434;28;19947;-87
2023/01/21 01:31:06;;;;;;;;;;;1.10;81.40;;;;;;5094195;28;19940;-88
2023/01/21 01:33:32;;;;;;;;;;;1.10;81.20;;;;;;5094523;28;19941;-87
2023/01/21 01:36:09;;;;;;;;;;;1.00;82.10;;;;;;5094458;28;19970;-87
2023/01/21 01:38:34;;;;;;;;;;;1.00;82.50;;;;;;5094364;28;19937;-87
2023/01/21 01:41:00;;;;;;;;;;;1.00;82.40;;;;;;5094085;28;19944;-88
2023/01/21 01:43:44;;;;;;;;;;;0.90;82.70;;;;;;5076133;28;19970;-88
2023/01/21 01:46:10;;;;;;;;;;;0.80;83.20;;;;;;5094224;28;19943;-88
2023/01/21 01:48:35;;;;;;;;;;;0.80;83.50;;;;;;5094228;28;19935;-87
2023/01/21 01:51:02;;;;;;;;;;;0.80;83.60;;;;;;5093981;28;19947;-88
2023/01/21 01:53:29;;;;;;;;;;;0.80;83.80;;;;;;5079714;28;19992;-88
2023/01/21 01:55:55;;;;;;;;;;;0.80;83.50;;;;;;5055774;28;19993;-88
2023/01/21 01:58:21;;;;;;;;;;;0.90;83.10;;;;;;5055903;28;19945;-88
2023/01/21 02:00:47;;;;;;;;;;;0.90;83.30;;;;;;5073503;28;19979;-88
2023/01/21 02:05:57;;;;;;;;;;;0.90;83.00;;;;;;5073958;28;19947;-88
2023/01/21 02:08:24;;;;;;;;;;;1.00;82.40;;;;;;5073653;28;19939;-88
2023/01/21 02:10:50;;;;;;;;;;;0.90;82.10;;;;;;5073343;28;20406;-88
2023/01/21 02:13:16;;;;;;;;;;;0.90;82.00;;;;;;5072903;28;19977;-88
2023/01/21 02:16:00;;;;;;;;;;;0.90;82.20;;;;;;5073327;28;20318;-88
2023/01/21 02:18:44;;;;;;;;;;;1.00;82.70;;;;;;5073452;28;19936;-87
2023/01/21 02:21:10;;;;;;;;;;;0.90;82.60;;;;;;5073221;28;19988;-88
2023/01/21 02:23:44;;;;;;;;;;;0.90;82.00;;;;;;5073289;28;19956;-88
2023/01/21 02:26:22;;;;;;;;;;;0.90;81.80;;;;;;5073377;28;19937;-88
2023/01/21 02:28:47;;;;;;;;;;;1.00;81.80;;;;;;5073336;28;19957;-88
2023/01/21 02:31:32;;;;;;;;;;;0.90;81.50;;;;;;5073023;28;20336;-88
2023/01/21 02:34:00;;;;;;;;;;;0.90;81.20;;;;;;5055288;28;19966;-88
2023/01/21 02:36:34;;;;;;;;;;;0.80;81.20;;;;;;5073260;28;19938;-88
2023/01/21 02:39:14;;;;;;;;;;;0.70;81.30;;;;;;5055194;28;19936;-88
2023/01/21 02:42:01;;;;;;;;;;;0.70;80.30;;;;;;5072830;28;20024;-88
2023/01/21 02:44:34;;;;;;;;;;;0.70;80.30;;;;;;5073166;28;19944;-88
2023/01/21 02:47:08;;;;;;;;;;;0.70;79.70;;;;;;5073175;28;19941;-88
2023/01/21 02:49:37;;;;;;;;;;;0.70;80.00;;;;;;5073118;28;20439;-88
2023/01/21 02:52:02;;;;;;;;;;;0.70;80.30;;;;;;5072690;28;19950;-88
2023/01/21 02:54:37;;;;;;;;;;;0.70;80.50;;;;;;5055168;28;19939;-88
2023/01/21 02:57:04;;;;;;;;;;;0.70;80.50;;;;;;5054955;28;20400;-88
2023/01/21 02:59:30;;;;;;;;;;;0.70;81.40;;;;;;5072958;28;19944;-88
2023/01/21 03:01:58;;;;;;;;;;;0.70;81.40;;;;;;5072646;28;19946;-88
2023/01/21 03:04:35;;;;;;;;;;;0.70;81.90;;;;;;5074803;28;19990;-88
2023/01/21 03:07:19;;;;;;;;;;;0.60;83.10;;;;;;5077151;28;19986;-88
2023/01/21 03:09:45;;;;;;;;;;;0.60;84.60;;;;;;5077034;28;20007;-88
2023/01/21 03:12:10;;;;;;;;;;;0.60;85.20;;;;;;5076713;28;19990;-88
2023/01/21 03:17:23;;;;;;;;;;;0.50;83.20;;;;;;5077233;28;19944;-88
2023/01/21 03:19:51;;;;;;;;;;;0.50;82.30;;;;;;5076817;28;19937;-88
2023/01/21 03:22:19;;;;;;;;;;;0.50;81.00;;;;;;5076541;28;20061;-88
2023/01/21 03:24:47;;;;;;;;;;;0.50;80.50;;;;;;5058774;28;19937;-88
2023/01/21 03:27:13;;;;;;;;;;;0.50;80.50;;;;;;5076719;28;19947;-88
2023/01/21 03:29:41;;;;;;;;;;;0.50;80.90;;;;;;5076616;28;19937;-88
2023/01/21 03:32:09;;;;;;;;;;;0.60;81.40;;;;;;5076354;28;20096;-88
2023/01/21 03:34:36;;;;;;;;;;;0.50;81.40;;;;;;5076562;28;20405;-88
2023/01/21 03:37:21;;;;;;;;;;;0.40;82.30;;;;;;5058610;28;20453;-88
2023/01/21 03:39:50;;;;;;;;;;;0.30;83.50;;;;;;5076650;28;19986;-87
2023/01/21 03:42:16;;;;;;;;;;;0.30;84.70;;;;;;5075893;28;20418;-87
2023/01/21 03:44:42;;;;;;;;;;;0.30;85.20;;;;;;5076619;28;19942;-88
2023/01/21 03:47:15;;;;;;;;;;;0.30;85.10;;;;;;5058208;28;20002;-88
2023/01/21 03:49:43;;;;;;;;;;;0.40;84.60;;;;;;5076237;28;20309;-88
2023/01/21 03:52:10;;;;;;;;;;;0.40;84.10;;;;;;5075863;28;20311;-88
2023/01/21 03:54:37;;;;;;;;;;;0.40;84.20;;;;;;5076147;28;19938;-88
2023/01/21 03:57:02;;;;;;;;;;;0.30;84.00;;;;;;5076070;28;19941;-88
2023/01/21 03:59:28;;;;;;;;;;;0.30;84.20;;;;;;5076065;28;20302;-88
2023/01/21 04:01:54;;;;;;;;;;;0.30;84.50;;;;;;5075763;28;19941;-87
2023/01/21 04:04:19;;;;;;;;;;;0.20;85.00;;;;;;5076038;28;19946;-88
2023/01/21 04:06:45;;;;;;;;;;;0.20;85.40;;;;;;5058006;28;19941;-88
2023/01/21 04:09:10;;;;;;;;;;;0.10;86.00;;;;;;5075962;28;19943;-88
2023/01/21 04:11:36;;;;;;;;;;;0.10;86.40;;;;;;5075620;28;19946;-88
2023/01/21 04:14:01;;;;;;;;;;;0.10;87.00;;;;;;5075710;28;20054;-88
2023/01/21 04:16:27;;;;;;;;;;;0.10;87.30;;;;;;5075502;28;20300;-87
2023/01/21 04:18:52;;;;;;;;;;;0.10;87.30;;;;;;5076037;28;19940;-88
2023/01/21 04:21:18;;;;;;;;;;;0.00;87.40;;;;;;5075479;28;20037;-87
2023/01/21 04:23:44;;;;;;;;;;;0.00;87.70;;;;;;5075577;28;19968;-87
2023/01/21 04:26:09;;;;;;;;;;;0.00;87.90;;;;;;5075584;28;19940;-87
2023/01/21 04:28:35;;;;;;;;;;;0.00;87.90;;;;;;5075579;28;19951;-87
2023/01/21 04:31:00;;;;;;;;;;;0.00;87.90;;;;;;5075299;28;20039;-88
2023/01/21 04:33:26;;;;;;;;;;;-3276.70;87.70;;;;;;5075479;28;19935;-88
2023/01/21 04:35:55;;;;;;;;;;;-3276.70;87.50;;;;;;5075438;28;19980;-88
2023/01/21 04:38:21;;;;;;;;;;;-3276.70;86.10;;;;;;5075403;28;19941;-87
2023/01/21 04:40:46;;;;;;;;;;;-3276.70;85.60;;;;;;5075137;28;20040;-88
2023/01/21 04:43:12;;;;;;;;;;;-3276.70;84.80;;;;;;5075256;28;20056;-88
2023/01/21 04:45:38;;;;;;;;;;;-3276.70;85.00;;;;;;5075443;28;19938;-88
2023/01/21 04:48:03;;;;;;;;;;;-3276.70;84.90;;;;;;5075224;28;19936;-88
2023/01/21 04:50:29;;;;;;;;;;;-3276.70;85.10;;;;;;5056930;28;20312;-88
2023/01/21 04:52:54;;;;;;;;;;;-3276.70;85.60;;;;;;5074930;28;20126;-87
2023/01/21 04:55:20;;;;;;;;;;;-3276.70;86.00;;;;;;5074953;28;20320;-87
2023/01/21 04:57:45;;;;;;;;;;;-3276.60;86.40;;;;;;5075042;28;20410;-87
2023/01/21 05:00:11;;;;;;;;;;;-3276.70;87.30;;;;;;5074978;28;19941;-88
2023/01/21 05:02:36;;;;;;;;;;;-3276.70;82.80;;;;;;5074570;28;19959;-87
2023/01/21 05:05:02;;;;;;;;;;;0.00;80.40;;;;;;5074877;28;19939;-87
2023/01/21 05:07:28;;;;;;;;;;;0.00;83.10;;;;;;5074696;28;19944;-88
2023/01/21 05:09:53;;;;;;;;;;;0.00;82.70;;;;;;5074802;28;19936;-88
2023/01/21 05:12:19;;;;;;;;;;;0.00;83.40;;;;;;5074420;28;20101;-87
2023/01/21 05:14:44;;;;;;;;;;;0.00;82.40;;;;;;5074482;28;20436;-88
2023/01/21 05:17:10;;;;;;;;;;;-3276.70;81.90;;;;;;5074646;28;19976;-88
2023/01/21 05:19:35;;;;;;;;;;;-3276.60;81.70;;;;;;5074574;28;20043;-88
2023/01/21 05:22:01;;;;;;;;;;;-3276.60;82.60;;;;;;5074262;28;19946;-88
2023/01/21 05:24:27;;;;;;;;;;;-3276.70;83.40;;;;;;5074449;28;19946;-88
2023/01/21 05:26:52;;;;;;;;;;;0.00;83.20;;;;;;5073747;28;20036;-88
2023/01/21 05:29:18;;;;;;;;;;;-3276.70;82.80;;;;;;5074661;28;19945;-88
2023/01/21 05:31:43;;;;;;;;;;;0.00;82.80;;;;;;5074040;28;20004;-88
2023/01/21 05:34:09;;;;;;;;;;;0.00;83.30;;;;;;5074283;28;20468;-88
2023/01/21 05:36:35;;;;;;;;;;;0.00;83.20;;;;;;5073077;28;20392;-87
2023/01/21 05:39:00;;;;;;;;;;;0.00;82.40;;;;;;5073604;28;20000;-87
2023/01/21 05:41:26;;;;;;;;;;;0.00;82.20;;;;;;5073725;28;19941;-87
2023/01/21 05:43:51;;;;;;;;;;;0.00;80.90;;;;;;5073906;28;19964;-87
2023/01/21 05:46:18;;;;;;;;;;;-3276.60;81.20;;;;;;5074051;28;19945;-88
2023/01/21 05:48:43;;;;;;;;;;;-3276.60;80.60;;;;;;5073868;28;19953;-88
2023/01/21 05:51:09;;;;;;;;;;;-3276.70;83.10;;;;;;5073127;28;19944;-88
2023/01/21 05:53:34;;;;;;;;;;;-3276.60;83.40;;;;;;5073680;28;20424;-88
2023/01/21 05:56:00;;;;;;;;;;;-3276.60;82.70;;;;;;5073641;28;20417;-87
2023/01/21 05:58:26;;;;;;;;;;;-3276.60;82.80;;;;;;5073799;28;20028;-87
2023/01/21 06:00:52;;;;;;;;;;;-3276.50;82.30;;;;;;5073208;28;20041;-87
2023/01/21 06:03:17;;;;;;;;;;;-3276.40;81.60;;;;;;5072687;28;20090;-87
2023/01/21 06:05:43;;;;;;;;;;;-3276.60;81.90;;;;;;5055652;28;19985;-88
2023/01/21 06:08:09;;;;;;;;;;;-3276.60;83.50;;;;;;5064139;28;19945;-87
2023/01/21 06:10:35;;;;;;;;;;;-3276.50;84.20;;;;;;5053042;28;19990;-88
2023/01/21 06:13:01;;;;;;;;;;;-3276.60;82.20;;;;;;5072435;28;19974;-87
2023/01/21 06:15:26;;;;;;;;;;;-3276.60;82.30;;;;;;5073374;28;19936;-87
2023/01/21 06:17:52;;;;;;;;;;;-3276.60;83.10;;;;;;5073402;28;19938;-87
2023/01/21 06:20:17;;;;;;;;;;;-3276.40;83.60;;;;;;5073140;28;19948;-87
2023/01/21 06:22:43;;;;;;;;;;;-3276.50;83.30;;;;;;5041696;28;20053;-88
2023/01/21 06:25:09;;;;;;;;;;;-3276.50;81.90;;;;;;5072568;28;20529;-87
2023/01/21 06:27:37;;;;;;;;;;;-3276.50;82.50;;;;;;5071089;28;19958;-87
2023/01/21 06:30:05;;;;;;;;;;;-3276.60;83.20;;;;;;5072988;28;20035;-87
2023/01/21 06:32:31;;;;;;;;;;;-3276.70;82.60;;;;;;5072330;28;19948;-87
2023/01/21 06:34:56;;;;;;;;;;;-3276.70;82.40;;;;;;5061167;28;19947;-88
2023/01/21 06:37:22;;;;;;;;;;;0.00;82.50;;;;;;5053956;28;19948;-87
2023/01/21 06:39:47;;;;;;;;;;;-3276.70;82.60;;;;;;5072060;28;20644;-87
2023/01/21 06:42:13;;;;;;;;;;;-3276.60;82.50;;;;;;5071618;28;20007;-87
2023/01/21 06:44:39;;;;;;;;;;;-3276.50;83.10;;;;;;5071837;28;20052;-87
2023/01/21 06:47:04;;;;;;;;;;;-3276.60;83.20;;;;;;5069352;28;19943;-87
2023/01/21 06:49:30;;;;;;;;;;;-3276.60;82.20;;;;;;5072196;28;19945;-87
2023/01/21 06:51:55;;;;;;;;;;;-3276.60;82.60;;;;;;5066608;28;19952;-87
2023/01/21 06:54:21;;;;;;;;;;;-3276.60;83.30;;;;;;5068356;28;20422;-87
2023/01/21 06:56:46;;;;;;;;;;;-3276.70;84.20;;;;;;5072239;28;20314;-87
2023/01/21 06:59:12;;;;;;;;;;;0.00;84.40;;;;;;5064571;28;20303;-87
2023/01/21 07:01:37;;;;;;;;;;;0.00;83.90;;;;;;5064734;28;20323;-88
2023/01/21 07:04:03;;;;;;;;;;;0.20;84.70;;;;;;5067667;28;19959;-88
2023/01/21 07:06:28;;;;;;;;;;;0.30;84.80;;;;;;5069992;28;20009;-88
2023/01/21 07:08:54;;;;;;;;;;;0.30;84.20;;;;;;5050459;28;20365;-88
2023/01/21 07:11:19;;;;;;;;;;;0.20;84.30;;;;;;5065900;28;19952;-88
2023/01/21 07:13:45;;;;;;;;;;;0.40;83.70;;;;;;5069220;28;19977;-88
2023/01/21 07:16:10;;;;;;;;;;;0.50;81.90;;;;;;5066277;28;20056;-87
2023/01/21 07:18:36;;;;;;;;;;;0.70;80.80;;;;;;5068133;28;20037;-88
2023/01/21 07:21:01;;;;;;;;;;;0.90;79.20;;;;;;5069075;28;20053;-88
2023/01/21 07:23:28;;;;;;;;;;;0.90;79.80;;;;;;5066912;28;19955;-87
2023/01/21 07:25:54;;;;;;;;;;;0.90;80.30;;;;;;5047222;28;20058;-88
2023/01/21 07:28:20;;;;;;;;;;;1.00;80.10;;;;;;5059267;28;20380;-88
2023/01/21 07:30:45;;;;;;;;;;;0.70;80.20;;;;;;5067063;28;19956;-88
2023/01/21 07:33:11;;;;;;;;;;;0.70;81.00;;;;;;5069856;28;19951;-88
2023/01/21 07:35:37;;;;;;;;;;;0.80;80.90;;;;;;5062813;28;19949;-88
2023/01/21 07:38:02;;;;;;;;;;;1.00;80.30;;;;;;5056904;28;20285;-88
2023/01/21 07:40:28;;;;;;;;;;;0.90;80.20;;;;;;5060815;28;19949;-88
2023/01/21 07:42:54;;;;;;;;;;;0.90;79.70;;;;;;5054179;28;20420;-88
2023/01/21 07:45:20;;;;;;;;;;;0.80;81.30;;;;;;5072170;28;19942;-88
2023/01/21 07:47:46;;;;;;;;;;;0.70;82.60;;;;;;5065438;28;20040;-88
2023/01/21 07:50:11;;;;;;;;;;;0.70;82.10;;;;;;5071572;28;20044;-89
2023/01/21 07:52:37;;;;;;;;;;;0.70;81.40;;;;;;5065493;28;19961;-89
2023/01/21 07:55:03;;;;;;;;;;;0.80;80.80;;;;;;5073454;28;19950;-88
2023/01/21 07:57:28;;;;;;;;;;;0.90;80.40;;;;;;5067423;28;20407;-88
2023/01/21 07:59:54;;;;;;;;;;;1.00;79.90;;;;;;5067131;28;20399;-88
2023/01/21 08:02:20;;;;;;;;;;;1.10;79.80;;;;;;5069688;28;20506;-89
2023/01/21 08:04:45;;;;;;;;;;;1.20;79.00;;;;;;5074905;28;19951;-88
2023/01/21 08:07:11;;;;;;;;;;;1.30;79.20;;;;;;5075005;28;19995;-88
2023/01/21 08:09:37;;;;;;;;;;;1.30;78.70;;;;;;5075490;28;19969;-88
2023/01/21 08:12:03;;;;;;;;;;;1.60;78.20;;;;;;5075053;28;20418;-89
2023/01/21 08:14:29;;;;;;;;;;;1.70;73.20;;;;;;5075066;28;19968;-89
2023/01/21 08:16:55;;;;;;;;;;;2.00;78.30;;;;;;5056936;28;19968;-88
2023/01/21 08:19:20;;;;;;;;;;;2.20;79.80;;;;;;5074770;28;19940;-89
2023/01/21 08:21:46;;;;;;;;;;;2.30;81.30;;;;;;5075392;28;19949;-89
2023/01/21 08:24:11;;;;;;;;;;;2.40;80.40;;;;;;5074655;28;19955;-89
2023/01/21 08:26:37;;;;;;;;;;;2.60;79.20;;;;;;5070833;28;20138;-90
2023/01/21 08:29:02;;;;;;;;;;;2.80;77.10;;;;;;5065857;28;19992;-89
2023/01/21 08:31:28;;;;;;;;;;;2.90;76.10;;;;;;5074206;28;20107;-89
2023/01/21 08:33:53;;;;;;;;;;;3.00;72.70;;;;;;5071177;28;19950;-88
2023/01/21 08:36:19;;;;;;;;;;;3.30;71.60;;;;;;5073483;28;19967;-90
2023/01/21 08:38:44;;;;;;;;;;;3.40;70.30;;;;;;5074778;28;20428;-88
2023/01/21 08:41:10;;;;;;;;;;;3.50;68.70;;;;;;5069512;28;20505;-88
2023/01/21 08:43:35;;;;;;;;;;;3.70;67.40;;;;;;5067088;28;19974;-88
2023/01/21 08:46:01;;;;;;;;;;;3.90;69.60;;;;;;5074585;28;20477;-88
2023/01/21 08:48:27;;;;;;;;;;;4.00;71.90;;;;;;5074002;28;19941;-88
2023/01/21 08:50:53;;;;;;;;;;;4.10;70.90;;;;;;5071014;28;19941;-88
2023/01/21 08:53:18;;;;;;;;;;;4.30;68.40;;;;;;5071259;28;20330;-88
2023/01/21 08:55:44;;;;;;;;;;;4.40;67.00;;;;;;5074374;28;19956;-88
2023/01/21 08:58:09;;;;;;;;;;;4.40;66.20;;;;;;5055210;28;19941;-88
2023/01/21 09:00:35;;;;;;;;;;;4.40;65.40;;;;;;5074258;28;20048;-88
2023/01/21 09:03:00;;;;;;;;;;;4.40;63.20;;;;;;5072866;28;19988;-88
2023/01/21 09:05:26;;;;;;;;;;;4.40;62.50;;;;;;5072164;28;19991;-88
2023/01/21 09:07:51;;;;;;;;;;;4.50;62.40;;;;;;5074277;28;20015;-88
2023/01/21 09:13:02;;;;;;;;;;;4.60;61.90;;;;;;5080899;22;19995;-88
2023/01/21 09:15:28;;;;;;;;;;;4.60;60.90;;;;;;5074556;28;19949;-88
2023/01/21 09:17:53;;;;;;;;;;;4.70;63.30;;;;;;5074124;28;19961;-88
2023/01/21 09:20:19;;;;;;;;;;;4.80;61.50;;;;;;5074319;28;19947;-88
2023/01/21 09:22:44;;;;;;;;;;;4.90;62.90;;;;;;5074534;28;19966;-88
2023/01/21 09:25:10;;;;;;;;;;;5.10;60.00;;;;;;5074279;28;19948;-88
2023/01/21 09:27:37;;;;;;;;;;;5.10;57.20;;;;;;5056361;28;20285;-88
2023/01/21 09:30:03;;;;;;;;;;;5.20;57.70;;;;;;5073464;28;20411;-87
2023/01/21 09:32:29;;;;;;;;;;;5.40;57.00;;;;;;5073207;28;19971;-88
2023/01/21 09:34:54;;;;;;;;;;;5.40;54.60;;;;;;5055720;28;19948;-88
2023/01/21 09:37:20;;;;;;;;;;;5.50;53.60;;;;;;5073780;28;19973;-88
2023/01/21 09:39:45;;;;;;;;;;;5.70;55.70;;;;;;5073573;28;19960;-88
2023/01/21 09:42:18;;;;;;;;;;;5.90;57.10;;;;;;5073592;28;20033;-88
2023/01/21 09:44:47;;;;;;;;;;;5.80;58.20;;;;;;5073907;28;19983;-88
2023/01/21 09:47:25;;;;;;;;;;;5.90;59.10;;;;;;5054030;28;19975;-88
2023/01/21 09:50:09;;;;;;;;;;;5.90;53.70;;;;;;5052637;28;20471;-87
2023/01/21 09:52:44;;;;;;;;;;;6.10;50.70;;;;;;5073877;28;19942;-88
2023/01/21 09:55:17;;;;;;;;;;;6.20;53.00;;;;;;5073449;28;19945;-88
2023/01/21 09:57:46;;;;;;;;;;;6.40;54.20;;;;;;5063529;28;19970;-89
2023/01/21 10:00:14;;;;;;;;;;;6.80;55.50;;;;;;5072696;28;19939;-88
2023/01/21 10:02:49;;;;;;;;;;;7.00;51.00;;;;;;5073496;28;20012;-88
2023/01/21 10:05:17;;;;;;;;;;;7.00;51.10;;;;;;5073490;28;19938;-89
2023/01/21 10:07:55;;;;;;;;;;;7.20;48.60;;;;;;5073723;28;19948;-88
2023/01/21 10:10:42;;;;;;;;;;;7.40;48.30;;;;;;5060306;28;19943;-88
2023/01/21 10:13:07;;;;;;;;;;;7.30;45.50;;;;;;5073151;28;19941;-88
2023/01/21 10:15:42;;;;;;;;;;;7.20;42.60;;;;;;5073138;28;19964;-88
2023/01/21 10:18:34;;;;;;;;;;;7.10;44.30;;;;;;5073285;28;20074;-88
2023/01/21 10:21:03;;;;;;;;;;;7.10;47.60;;;;;;5069015;28;20316;-88
2023/01/21 10:23:41;;;;;;;;;;;7.20;44.50;;;;;;5073351;28;20325;-88
2023/01/21 10:26:08;;;;;;;;;;;7.30;44.10;;;;;;5072709;28;19941;-88
2023/01/21 10:28:37;;;;;;;;;;;7.30;43.50;;;;;;5072901;28;20024;-88
2023/01/21 10:31:10;;;;;;;;;;;7.40;43.80;;;;;;5072653;28;19949;-88
2023/01/21 10:33:35;;;;;;;;;;;7.40;41.00;;;;;;5072465;28;20072;-88
2023/01/21 10:36:07;;;;;;;;;;;7.40;41.10;;;;;;5072779;28;20485;-88
2023/01/21 10:38:38;;;;;;;;;;;7.40;42.10;;;;;;5072670;28;19936;-88
2023/01/21 10:41:22;;;;;;;;;;;7.40;42.60;;;;;;5072491;28;19990;-88
2023/01/21 10:43:56;;;;;;;;;;;7.40;43.40;;;;;;5072513;28;19959;-88
2023/01/21 10:46:28;;;;;;;;;;;7.50;43.70;;;;;;5053493;28;19945;-88
2023/01/21 10:48:57;;;;;;;;;;;7.40;40.70;;;;;;5072352;28;19987;-88
2023/01/21 10:51:26;;;;;;;;;;;7.40;39.60;;;;;;5073056;28;19988;-88
2023/01/21 10:54:10;;;;;;;;;;;7.40;40.00;;;;;;5073014;28;19958;-88
2023/01/21 10:56:35;;;;;;;;;;;7.40;41.50;;;;;;5072343;28;20268;-88
2023/01/21 10:59:09;;;;;;;;;;;7.40;42.10;;;;;;5072356;28;20534;-88
2023/01/21 11:01:36;;;;;;;;;;;7.50;41.70;;;;;;5073037;28;20392;-88
2023/01/21 11:04:22;;;;;;;;;;;7.50;43.20;;;;;;5072935;28;20053;-88
2023/01/21 11:07:08;;;;;;;;;;;7.60;41.30;;;;;;5071896;28;19949;-88
2023/01/21 11:09:36;;;;;;;;;;;7.60;39.80;;;;;;5070878;28;20561;-88
2023/01/21 11:12:02;;;;;;;;;;;7.50;41.70;;;;;;5072253;28;19968;-88
2023/01/21 11:14:27;;;;;;;;;;;7.50;40.10;;;;;;5071966;28;19967;-88
2023/01/21 11:16:53;;;;;;;;;;;7.60;44.70;;;;;;5072532;28;19967;-88
2023/01/21 11:19:23;;;;;;;;;;;7.60;43.20;;;;;;5072455;28;20037;-88
2023/01/21 11:22:03;;;;;;;;;;;7.50;39.60;;;;;;5072766;28;19940;-88
2023/01/21 11:24:30;;;;;;;;;;;7.60;41.00;;;;;;5072977;28;19986;-88
2023/01/21 11:26:57;;;;;;;;;;;7.70;40.60;;;;;;5076798;28;19949;-88
2023/01/21 11:29:24;;;;;;;;;;;7.70;40.40;;;;;;5058592;28;19942;-88
2023/01/21 11:31:51;;;;;;;;;;;7.80;42.10;;;;;;5076970;28;19948;-88
2023/01/21 11:34:17;;;;;;;;;;;7.90;43.70;;;;;;5076666;28;19942;-88
2023/01/21 11:36:57;;;;;;;;;;;8.00;40.40;;;;;;5076845;28;19951;-87
2023/01/21 11:39:27;;;;;;;;;;;7.90;38.60;;;;;;5076300;28;19994;-88
2023/01/21 11:41:53;;;;;;;;;;;7.90;40.90;;;;;;5058605;28;19950;-87
2023/01/21 11:44:20;;;;;;;;;;;7.90;41.40;;;;;;5076427;28;19995;-88
2023/01/21 11:46:46;;;;;;;;;;;8.00;39.00;;;;;;5076405;28;19937;-87
2023/01/21 11:49:14;;;;;;;;;;;8.10;41.60;;;;;;5076146;28;20037;-88
2023/01/21 11:51:40;;;;;;;;;;;8.20;42.50;;;;;;5076568;28;19997;-87
2023/01/21 11:54:06;;;;;;;;;;;8.30;41.80;;;;;;5076206;28;19959;-87
2023/01/21 11:56:31;;;;;;;;;;;8.40;39.40;;;;;;5076091;28;19938;-87
2023/01/21 11:58:57;;;;;;;;;;;8.40;41.10;;;;;;5075870;28;19982;-87
2023/01/21 12:01:22;;;;;;;;;;;8.40;39.70;;;;;;5075970;28;19955;-88
2023/01/21 12:03:51;;;;;;;;;;;8.50;39.50;;;;;;5076058;28;19966;-87
2023/01/21 12:06:18;;;;;;;;;;;8.60;42.80;;;;;;5076050;28;19943;-87
2023/01/21 12:08:47;;;;;;;;;;;8.70;39.80;;;;;;5075631;28;20399;-87
2023/01/21 12:11:17;;;;;;;;;;;8.80;40.60;;;;;;5075963;28;19945;-88
2023/01/21 12:13:52;;;;;;;;;;;9.00;41.60;;;;;;5075721;28;19988;-87
2023/01/21 12:16:27;;;;;;;;;;;9.30;41.60;;;;;;5057905;28;20293;-88
2023/01/21 12:19:15;;;;;;;;;;;9.60;38.40;;;;;;5075603;28;19947;-88
2023/01/21 12:21:43;;;;;;;;;;;9.80;38.90;;;;;;5075712;28;19949;-88
2023/01/21 12:24:19;;;;;;;;;;;9.60;38.10;;;;;;5075644;28;19959;-87
2023/01/21 12:26:49;;;;;;;;;;;9.40;39.80;;;;;;5075653;28;19948;-88
2023/01/21 12:29:33;;;;;;;;;;;9.50;42.00;;;;;;5075344;28;19948;-87
2023/01/21 12:32:19;;;;;;;;;;;9.40;40.00;;;;;;5075554;28;19946;-87
2023/01/21 12:34:48;;;;;;;;;;;9.30;42.00;;;;;;5075555;28;19962;-88
2023/01/21 12:37:17;;;;;;;;;;;9.30;41.60;;;;;;5075337;28;19999;-87
2023/01/21 12:39:43;;;;;;;;;;;9.20;41.10;;;;;;5075240;28;19947;-87
2023/01/21 12:42:14;;;;;;;;;;;9.20;42.80;;;;;;5075322;28;19941;-87
2023/01/21 12:44:42;;;;;;;;;;;9.50;38.50;;;;;;5075340;28;19947;-88
2023/01/21 12:47:34;;;;;;;;;;;9.90;40.70;;;;;;5075210;28;19960;-87
2023/01/21 12:50:06;;;;;;;;;;;10.10;38.20;;;;;;5044106;28;19948;-87
2023/01/21 12:53:01;;;;;;;;;;;10.30;36.20;;;;;;5075379;28;19955;-87
2023/01/21 12:55:37;;;;;;;;;;;10.40;38.70;;;;;;5061414;28;19946;-88
2023/01/21 12:58:05;;;;;;;;;;;10.40;40.60;;;;;;5075127;28;19963;-87
2023/01/21 13:00:34;;;;;;;;;;;10.20;38.70;;;;;;5056990;28;19987;-87
2023/01/21 13:03:00;;;;;;;;;;;10.10;38.30;;;;;;5074932;28;20012;-87
2023/01/21 13:05:35;;;;;;;;;;;9.90;37.70;;;;;;5074923;28;19971;-87
2023/01/21 13:08:19;;;;;;;;;;;9.90;39.00;;;;;;5074788;28;19942;-87
2023/01/21 13:10:48;;;;;;;;;;;9.80;40.20;;;;;;5074592;28;19956;-88
2023/01/21 13:13:17;;;;;;;;;;;9.80;39.90;;;;;;5074896;28;20011;-88
2023/01/21 13:15:44;;;;;;;;;;;9.80;39.60;;;;;;5074755;28;19943;-88
2023/01/21 13:18:13;;;;;;;;;;;9.80;41.30;;;;;;5074695;28;19984;-87
2023/01/21 13:20:40;;;;;;;;;;;9.80;39.60;;;;;;5056289;28;20074;-88
2023/01/21 13:23:16;;;;;;;;;;;9.80;39.30;;;;;;5074536;28;20452;-87
2023/01/21 13:25:41;;;;;;;;;;;9.80;39.10;;;;;;5056614;28;19944;-88
2023/01/21 13:28:25;;;;;;;;;;;9.70;37.80;;;;;;5074525;28;19937;-87
2023/01/21 13:30:55;;;;;;;;;;;9.70;39.50;;;;;;5054441;28;20454;-88
2023/01/21 13:33:34;;;;;;;;;;;9.70;39.60;;;;;;5054388;28;19937;-87
2023/01/21 13:36:15;;;;;;;;;;;9.80;39.50;;;;;;5054351;28;20395;-87
2023/01/21 13:38:46;;;;;;;;;;;9.60;38.80;;;;;;5056816;28;20070;-88
2023/01/21 13:41:12;;;;;;;;;;;9.60;38.40;;;;;;5074263;28;20461;-88
2023/01/21 13:43:37;;;;;;;;;;;9.50;38.80;;;;;;5056156;28;20056;-87
2023/01/21 13:46:21;;;;;;;;;;;9.50;39.10;;;;;;5074134;28;19937;-88
2023/01/21 13:48:52;;;;;;;;;;;9.50;39.90;;;;;;5073331;28;19985;-88
2023/01/21 13:51:18;;;;;;;;;;;9.40;40.80;;;;;;5074060;28;19978;-88
2023/01/21 13:53:52;;;;;;;;;;;9.10;38.70;;;;;;5056018;28;19962;-88
2023/01/21 13:56:24;;;;;;;;;;;8.90;37.70;;;;;;5073797;28;20299;-88
2023/01/21 13:58:54;;;;;;;;;;;8.90;41.60;;;;;;5073609;28;19943;-88
2023/01/21 14:01:32;;;;;;;;;;;8.80;39.70;;;;;;5073868;28;19942;-88
2023/01/21 14:04:02;;;;;;;;;;;8.80;41.40;;;;;;5074014;28;20360;-88
2023/01/21 14:06:32;;;;;;;;;;;8.80;42.80;;;;;;5073766;28;19980;-89
2023/01/21 14:09:00;;;;;;;;;;;8.80;43.20;;;;;;5073470;28;19942;-89
2023/01/21 14:11:30;;;;;;;;;;;8.90;43.50;;;;;;5073671;28;19945;-89
2023/01/21 14:13:55;;;;;;;;;;;9.00;42.60;;;;;;5073454;28;19977;-89
2023/01/21 14:16:30;;;;;;;;;;;9.40;43.40;;;;;;5073817;28;19982;-89
2023/01/21 14:19:10;;;;;;;;;;;10.10;43.00;;;;;;5073269;28;19941;-88
2023/01/21 14:21:35;;;;;;;;;;;10.80;40.30;;;;;;5073774;28;20380;-89
2023/01/21 14:24:04;;;;;;;;;;;11.10;40.00;;;;;;5073404;28;19959;-89
2023/01/21 14:26:32;;;;;;;;;;;10.90;38.70;;;;;;5073751;28;19941;-89
2023/01/21 14:28:58;;;;;;;;;;;10.40;40.10;;;;;;5073168;28;20081;-89
2023/01/21 14:31:29;;;;;;;;;;;10.00;41.30;;;;;;5073302;28;20025;-89
2023/01/21 14:34:03;;;;;;;;;;;9.70;40.90;;;;;;5073353;28;19938;-88
2023/01/21 14:36:35;;;;;;;;;;;9.30;41.90;;;;;;5073330;28;20387;-88
2023/01/21 14:39:00;;;;;;;;;;;9.10;41.40;;;;;;5072957;28;19940;-88